sensor_id;sensor_type;location;lat;lon;timestamp;temperature;humidity
18876;DHT22;9570;50.854;13.778;2023-03-01T00:01:37;-3.70;99.90
18876;DHT22;9570;50.854;13.778;2023-03-01T00:04:03;-3.90;99.90
18876;DHT22;9570;50.854;13.778;2023-03-01T00:06:28;-3.80;99.90
18876;DHT22;9570;50.854;13.778;2023-03-01T00:08:54;-3.80;99.90
18876;DHT22;9570;50.854;13.778;2023-03-01T00:11:24;-3.90;99.90
18876;DHT22;9570;50.854;13.778;2023-03-01T00:13:52;-3.80;99.90
18876;DHT22;9570;50.854;13.778;2023-03-01T00:16:22;-3.80;99.90
18876;DHT22;9570;50.854;13.778;2023-03-01T00:18:48;-3.90;99.90
18876;DHT22;9570;50.854;13.778;2023-03-01T00:21:13;-3.90;99.90
18876;DHT22;9570;50.854;13.778;2023-03-01T00:23:40;-3.90;99.90
18876;DHT22;9570;50.854;13.778;2023-03-01T00:26:08;-4.00;99.90
18876;DHT22;9570;50.854;13.778;2023-03-01T00:28:33;-4.10;99.90
18876;DHT22;9570;50.854;13.778;2023-03-01T00:31:04;-4.10;99.90
18876;DHT22;9570;50.854;13.778;2023-03-01T00:33:30;-4.00;99.90
18876;DHT22;9570;50.854;13.778;2023-03-01T00:35:58;-4.10;99.90
18876;DHT22;9570;50.854;13.778;2023-03-01T00:38:23;-4.10;99.90
18876;DHT22;9570;50.854;13.778;2023-03-01T00:40:49;-4.10;99.90
18876;DHT22;9570;50.854;13.778;2023-03-01T00:43:14;-4.10;99.90
18876;DHT22;9570;50.854;13.778;2023-03-01T00:45:40;-4.10;99.90
18876;DHT22;9570;50.854;13.778;2023-03-01T00:48:05;-4.00;99.90
18876;DHT22;9570;50.854;13.778;2023-03-01T00:50:31;-4.00;99.90
18876;DHT22;9570;50.854;13.778;2023-03-01T00:52:56;-4.20;99.90
18876;DHT22;9570;50.854;13.778;2023-03-01T00:55:23;-4.00;99.90
18876;DHT22;9570;50.854;13.778;2023-03-01T00:57:48;-4.10;99.90
18876;DHT22;9570;50.854;13.778;2023-03-01T01:00:14;-4.20;99.90
18876;DHT22;9570;50.854;13.778;2023-03-01T01:02:40;-4.20;99.90
18876;DHT22;9570;50.854;13.778;2023-03-01T01:05:06;-4.30;99.90
18876;DHT22;9570;50.854;13.778;2023-03-01T01:07:31;-4.20;99.90
18876;DHT22;9570;50.854;13.778;2023-03-01T01:09:57;-4.30;99.90
18876;DHT22;9570;50.854;13.778;2023-03-01T01:12:22;-4.30;99.90
18876;DHT22;9570;50.854;13.778;2023-03-01T01:14:48;-4.10;99.90
18876;DHT22;9570;50.854;13.778;2023-03-01T01:17:13;-4.30;99.90
18876;DHT22;9570;50.854;13.778;2023-03-01T01:19:39;-4.40;99.90
18876;DHT22;9570;50.854;13.778;2023-03-01T01:22:04;-4.40;99.90
18876;DHT22;9570;50.854;13.778;2023-03-01T01:24:30;-4.50;99.90
18876;DHT22;9570;50.854;13.778;2023-03-01T01:26:55;-4.40;99.90
18876;DHT22;9570;50.854;13.778;2023-03-01T01:29:21;-4.40;99.90
18876;DHT22;9570;50.854;13.778;2023-03-01T01:31:46;-4.40;99.90
18876;DHT22;9570;50.854;13.778;2023-03-01T01:34:17;-4.50;99.90
18876;DHT22;9570;50.854;13.778;2023-03-01T01:36:43;-4.50;99.90
18876;DHT22;9570;50.854;13.778;2023-03-01T01:39:12;-4.60;99.90
18876;DHT22;9570;50.854;13.778;2023-03-01T01:41:40;-4.70;99.90
18876;DHT22;9570;50.854;13.778;2023-03-01T01:44:23;-4.60;99.90
18876;DHT22;9570;50.854;13.778;2023-03-01T01:47:05;-4.60;99.90
18876;DHT22;9570;50.854;13.778;2023-03-01T01:49:47;-4.60;99.90
18876;DHT22;9570;50.854;13.778;2023-03-01T01:52:17;-4.60;99.90
18876;DHT22;9570;50.854;13.778;2023-03-01T01:54:50;-4.60;99.90
18876;DHT22;9570;50.854;13.778;2023-03-01T01:57:20;-4.70;99.90
18876;DHT22;9570;50.854;13.778;2023-03-01T01:59:51;-4.70;99.90
18876;DHT22;9570;50.854;13.778;2023-03-01T02:02:18;-4.70;99.90
18876;DHT22;9570;50.854;13.778;2023-03-01T02:04:43;-4.80;99.90
18876;DHT22;9570;50.854;13.778;2023-03-01T02:07:15;-4.70;99.90
18876;DHT22;9570;50.854;13.778;2023-03-01T02:09:43;-4.70;99.90
18876;DHT22;9570;50.854;13.778;2023-03-01T02:12:10;-4.70;99.90
18876;DHT22;9570;50.854;13.778;2023-03-01T02:14:36;-4.70;99.90
18876;DHT22;9570;50.854;13.778;2023-03-01T02:17:01;-4.80;99.90
18876;DHT22;9570;50.854;13.778;2023-03-01T02:19:52;-4.80;99.90
18876;DHT22;9570;50.854;13.778;2023-03-01T02:22:23;-4.80;99.90
18876;DHT22;9570;50.854;13.778;2023-03-01T02:28:49;-4.80;99.90
18876;DHT22;9570;50.854;13.778;2023-03-01T02:30:46;-4.80;99.90
18876;DHT22;9570;50.854;13.778;2023-03-01T02:33:33;-4.30;99.90
18876;DHT22;9570;50.854;13.778;2023-03-01T02:36:03;-4.90;99.90
18876;DHT22;9570;50.854;13.778;2023-03-01T02:38:31;-5.00;99.90
18876;DHT22;9570;50.854;13.778;2023-03-01T02:40:57;-4.90;99.90
18876;DHT22;9570;50.854;13.778;2023-03-01T02:43:25;-4.90;99.90
18876;DHT22;9570;50.854;13.778;2023-03-01T02:45:52;-4.80;99.90
18876;DHT22;9570;50.854;13.778;2023-03-01T02:48:19;-4.90;99.90
18876;DHT22;9570;50.854;13.778;2023-03-01T02:53:39;-5.00;99.90
18876;DHT22;9570;50.854;13.778;2023-03-01T02:56:07;-5.00;99.90
18876;DHT22;9570;50.854;13.778;2023-03-01T02:58:39;-5.00;99.90
18876;DHT22;9570;50.854;13.778;2023-03-01T03:01:11;-5.00;99.90
18876;DHT22;9570;50.854;13.778;2023-03-01T03:03:38;-5.00;99.90
18876;DHT22;9570;50.854;13.778;2023-03-01T03:06:04;-5.00;99.90
18876;DHT22;9570;50.854;13.778;2023-03-01T03:08:29;-5.10;99.90
18876;DHT22;9570;50.854;13.778;2023-03-01T03:10:55;-5.20;99.90
18876;DHT22;9570;50.854;13.778;2023-03-01T03:13:21;-5.10;99.90
18876;DHT22;9570;50.854;13.778;2023-03-01T03:15:47;-5.00;99.90
18876;DHT22;9570;50.854;13.778;2023-03-01T03:18:15;-5.10;99.90
18876;DHT22;9570;50.854;13.778;2023-03-01T03:20:42;-5.10;99.90
18876;DHT22;9570;50.854;13.778;2023-03-01T03:23:08;-5.20;99.90
18876;DHT22;9570;50.854;13.778;2023-03-01T03:25:34;-5.30;99.90
18876;DHT22;9570;50.854;13.778;2023-03-01T03:28:03;-5.30;99.90
18876;DHT22;9570;50.854;13.778;2023-03-01T03:30:36;-5.20;99.90
18876;DHT22;9570;50.854;13.778;2023-03-01T03:33:04;-5.20;99.90
18876;DHT22;9570;50.854;13.778;2023-03-01T03:35:32;-5.20;99.90
18876;DHT22;9570;50.854;13.778;2023-03-01T03:38:00;-5.20;99.90
18876;DHT22;9570;50.854;13.778;2023-03-01T03:40:38;-5.20;99.90
18876;DHT22;9570;50.854;13.778;2023-03-01T03:43:07;-5.20;99.90
18876;DHT22;9570;50.854;13.778;2023-03-01T03:45:34;-5.30;99.90
18876;DHT22;9570;50.854;13.778;2023-03-01T03:48:01;-5.30;99.90
18876;DHT22;9570;50.854;13.778;2023-03-01T03:50:27;-5.40;99.90
18876;DHT22;9570;50.854;13.778;2023-03-01T03:52:52;-5.40;99.90
18876;DHT22;9570;50.854;13.778;2023-03-01T03:55:18;-5.20;99.90
18876;DHT22;9570;50.854;13.778;2023-03-01T03:57:45;-5.40;99.90
18876;DHT22;9570;50.854;13.778;2023-03-01T04:00:17;-5.40;99.90
18876;DHT22;9570;50.854;13.778;2023-03-01T04:02:44;-5.40;99.90
18876;DHT22;9570;50.854;13.778;2023-03-01T04:05:12;-5.40;99.90
18876;DHT22;9570;50.854;13.778;2023-03-01T04:07:38;-5.50;99.90
18876;DHT22;9570;50.854;13.778;2023-03-01T04:10:05;-5.50;99.90
18876;DHT22;9570;50.854;13.778;2023-03-01T04:12:32;-5.50;99.90
18876;DHT22;9570;50.854;13.778;2023-03-01T04:14:59;-5.50;99.90
18876;DHT22;9570;50.854;13.778;2023-03-01T04:17:25;-5.50;99.90
18876;DHT22;9570;50.854;13.778;2023-03-01T04:19:50;-5.50;99.90
18876;DHT22;9570;50.854;13.778;2023-03-01T04:22:16;-5.50;99.90
18876;DHT22;9570;50.854;13.778;2023-03-01T04:24:43;-5.50;99.90
18876;DHT22;9570;50.854;13.778;2023-03-01T04:27:09;-5.50;99.90
18876;DHT22;9570;50.854;13.778;2023-03-01T04:29:35;-5.50;99.90
18876;DHT22;9570;50.854;13.778;2023-03-01T04:32:00;-5.40;99.90
18876;DHT22;9570;50.854;13.778;2023-03-01T04:34:25;-5.60;99.90
18876;DHT22;9570;50.854;13.778;2023-03-01T04:36:54;-5.60;99.90
18876;DHT22;9570;50.854;13.778;2023-03-01T04:39:19;-5.60;99.90
18876;DHT22;9570;50.854;13.778;2023-03-01T04:41:45;-5.60;99.90
18876;DHT22;9570;50.854;13.778;2023-03-01T04:44:11;-5.60;99.90
18876;DHT22;9570;50.854;13.778;2023-03-01T04:46:36;-5.70;99.90
18876;DHT22;9570;50.854;13.778;2023-03-01T04:49:03;-5.60;99.90
18876;DHT22;9570;50.854;13.778;2023-03-01T04:51:28;-5.70;99.90
18876;DHT22;9570;50.854;13.778;2023-03-01T04:53:54;-5.70;99.90
18876;DHT22;9570;50.854;13.778;2023-03-01T04:56:20;-5.70;99.90
18876;DHT22;9570;50.854;13.778;2023-03-01T04:58:48;-5.80;99.90
18876;DHT22;9570;50.854;13.778;2023-03-01T05:01:16;-5.80;99.90
18876;DHT22;9570;50.854;13.778;2023-03-01T05:03:47;-5.80;99.90
18876;DHT22;9570;50.854;13.778;2023-03-01T05:06:13;-5.70;99.90
18876;DHT22;9570;50.854;13.778;2023-03-01T05:08:40;-5.90;99.90
18876;DHT22;9570;50.854;13.778;2023-03-01T05:11:06;-5.80;99.90
18876;DHT22;9570;50.854;13.778;2023-03-01T05:13:35;-5.80;99.90
18876;DHT22;9570;50.854;13.778;2023-03-01T05:16:02;-5.80;99.90
18876;DHT22;9570;50.854;13.778;2023-03-01T05:18:30;-5.80;99.90
18876;DHT22;9570;50.854;13.778;2023-03-01T05:21:05;-5.80;99.90
18876;DHT22;9570;50.854;13.778;2023-03-01T05:23:33;-5.90;99.90
18876;DHT22;9570;50.854;13.778;2023-03-01T05:25:59;-5.90;99.90
18876;DHT22;9570;50.854;13.778;2023-03-01T05:28:26;-6.00;99.90
18876;DHT22;9570;50.854;13.778;2023-03-01T05:30:52;-6.00;99.90
18876;DHT22;9570;50.854;13.778;2023-03-01T05:33:17;-6.00;99.90
18876;DHT22;9570;50.854;13.778;2023-03-01T05:35:44;-6.00;99.90
18876;DHT22;9570;50.854;13.778;2023-03-01T05:38:11;-6.00;99.90
18876;DHT22;9570;50.854;13.778;2023-03-01T05:40:44;-6.00;99.90
18876;DHT22;9570;50.854;13.778;2023-03-01T05:43:10;-6.00;99.90
18876;DHT22;9570;50.854;13.778;2023-03-01T05:45:37;-6.10;99.90
18876;DHT22;9570;50.854;13.778;2023-03-01T05:48:04;-6.00;99.90
18876;DHT22;9570;50.854;13.778;2023-03-01T05:50:33;-6.00;99.90
18876;DHT22;9570;50.854;13.778;2023-03-01T05:55:24;-6.00;99.90
18876;DHT22;9570;50.854;13.778;2023-03-01T05:57:49;-6.10;99.90
18876;DHT22;9570;50.854;13.778;2023-03-01T06:00:17;-6.00;99.90
18876;DHT22;9570;50.854;13.778;2023-03-01T06:02:43;-6.10;99.90
18876;DHT22;9570;50.854;13.778;2023-03-01T06:05:10;-6.10;99.90
18876;DHT22;9570;50.854;13.778;2023-03-01T06:07:36;-6.10;99.90
18876;DHT22;9570;50.854;13.778;2023-03-01T06:10:03;-6.10;99.90
18876;DHT22;9570;50.854;13.778;2023-03-01T06:12:36;-6.10;99.90
18876;DHT22;9570;50.854;13.778;2023-03-01T06:15:04;-6.00;99.90
18876;DHT22;9570;50.854;13.778;2023-03-01T06:17:31;-6.00;99.90
18876;DHT22;9570;50.854;13.778;2023-03-01T06:19:57;-6.00;99.90
18876;DHT22;9570;50.854;13.778;2023-03-01T06:22:23;-6.00;99.90
18876;DHT22;9570;50.854;13.778;2023-03-01T06:24:49;-6.00;99.90
18876;DHT22;9570;50.854;13.778;2023-03-01T06:27:15;-6.00;99.90
18876;DHT22;9570;50.854;13.778;2023-03-01T06:29:40;-5.90;99.90
18876;DHT22;9570;50.854;13.778;2023-03-01T06:32:06;-5.90;99.90
18876;DHT22;9570;50.854;13.778;2023-03-01T06:34:33;-5.90;99.90
18876;DHT22;9570;50.854;13.778;2023-03-01T06:36:58;-5.90;99.90
18876;DHT22;9570;50.854;13.778;2023-03-01T06:39:24;-5.90;99.90
18876;DHT22;9570;50.854;13.778;2023-03-01T06:41:49;-5.80;99.90
18876;DHT22;9570;50.854;13.778;2023-03-01T06:44:15;-5.80;99.90
18876;DHT22;9570;50.854;13.778;2023-03-01T06:46:40;-5.80;99.90
18876;DHT22;9570;50.854;13.778;2023-03-01T06:49:06;-5.70;99.90
18876;DHT22;9570;50.854;13.778;2023-03-01T06:51:35;-5.70;99.90
18876;DHT22;9570;50.854;13.778;2023-03-01T06:54:02;-5.70;99.90
18876;DHT22;9570;50.854;13.778;2023-03-01T06:56:27;-5.70;99.90
18876;DHT22;9570;50.854;13.778;2023-03-01T06:58:53;-5.70;99.90
18876;DHT22;9570;50.854;13.778;2023-03-01T07:01:18;-5.50;99.90
18876;DHT22;9570;50.854;13.778;2023-03-01T07:03:44;-5.40;99.90
18876;DHT22;9570;50.854;13.778;2023-03-01T07:06:09;-5.20;99.90
18876;DHT22;9570;50.854;13.778;2023-03-01T07:08:35;-5.10;99.90
18876;DHT22;9570;50.854;13.778;2023-03-01T07:11:00;-5.00;99.90
18876;DHT22;9570;50.854;13.778;2023-03-01T07:13:27;-5.00;99.90
18876;DHT22;9570;50.854;13.778;2023-03-01T07:15:53;-4.90;99.90
18876;DHT22;9570;50.854;13.778;2023-03-01T07:18:18;-4.90;99.90
18876;DHT22;9570;50.854;13.778;2023-03-01T07:20:44;-4.80;99.90
18876;DHT22;9570;50.854;13.778;2023-03-01T07:23:10;-4.80;99.90
18876;DHT22;9570;50.854;13.778;2023-03-01T07:25:35;-5.00;99.90
18876;DHT22;9570;50.854;13.778;2023-03-01T07:28:01;-5.00;99.90
18876;DHT22;9570;50.854;13.778;2023-03-01T07:30:26;-4.80;99.90
18876;DHT22;9570;50.854;13.778;2023-03-01T07:32:54;-4.40;99.90
18876;DHT22;9570;50.854;13.778;2023-03-01T07:35:20;-3.90;99.90
18876;DHT22;9570;50.854;13.778;2023-03-01T07:37:46;-3.30;99.90
18876;DHT22;9570;50.854;13.778;2023-03-01T07:40:12;-2.80;99.90
18876;DHT22;9570;50.854;13.778;2023-03-01T07:42:37;-2.30;99.90
18876;DHT22;9570;50.854;13.778;2023-03-01T07:45:04;-1.50;99.90
18876;DHT22;9570;50.854;13.778;2023-03-01T07:47:31;-0.80;99.90
18876;DHT22;9570;50.854;13.778;2023-03-01T07:49:56;-0.30;99.90
18876;DHT22;9570;50.854;13.778;2023-03-01T07:52:22;0.10;99.90
18876;DHT22;9570;50.854;13.778;2023-03-01T07:54:47;0.60;99.90
18876;DHT22;9570;50.854;13.778;2023-03-01T07:57:13;1.00;99.90
18876;DHT22;9570;50.854;13.778;2023-03-01T07:59:38;1.60;99.90
18876;DHT22;9570;50.854;13.778;2023-03-01T08:02:03;2.00;99.90
18876;DHT22;9570;50.854;13.778;2023-03-01T08:04:29;2.20;99.90
18876;DHT22;9570;50.854;13.778;2023-03-01T08:06:55;2.70;99.90
18876;DHT22;9570;50.854;13.778;2023-03-01T08:09:21;3.30;99.90
18876;DHT22;9570;50.854;13.778;2023-03-01T08:11:46;3.70;99.90
18876;DHT22;9570;50.854;13.778;2023-03-01T08:14:12;3.80;99.90
18876;DHT22;9570;50.854;13.778;2023-03-01T08:16:37;4.00;99.90
18876;DHT22;9570;50.854;13.778;2023-03-01T08:19:07;3.90;99.90
18876;DHT22;9570;50.854;13.778;2023-03-01T08:21:33;3.50;99.90
18876;DHT22;9570;50.854;13.778;2023-03-01T08:24:04;3.40;99.90
18876;DHT22;9570;50.854;13.778;2023-03-01T08:26:30;3.30;99.90
18876;DHT22;9570;50.854;13.778;2023-03-01T08:28:55;3.30;99.90
18876;DHT22;9570;50.854;13.778;2023-03-01T08:31:30;3.60;99.90
18876;DHT22;9570;50.854;13.778;2023-03-01T08:33:58;4.00;99.90
18876;DHT22;9570;50.854;13.778;2023-03-01T08:36:30;4.60;99.90
18876;DHT22;9570;50.854;13.778;2023-03-01T08:38:56;5.10;99.90
18876;DHT22;9570;50.854;13.778;2023-03-01T08:41:22;5.30;99.90
18876;DHT22;9570;50.854;13.778;2023-03-01T08:43:48;5.20;99.90
18876;DHT22;9570;50.854;13.778;2023-03-01T08:46:14;5.30;99.90
18876;DHT22;9570;50.854;13.778;2023-03-01T08:48:39;5.90;99.90
18876;DHT22;9570;50.854;13.778;2023-03-01T08:51:16;6.30;99.90
18876;DHT22;9570;50.854;13.778;2023-03-01T08:53:42;6.50;99.90
18876;DHT22;9570;50.854;13.778;2023-03-01T08:56:08;6.30;99.90
18876;DHT22;9570;50.854;13.778;2023-03-01T08:58:35;6.70;99.90
18876;DHT22;9570;50.854;13.778;2023-03-01T09:01:00;6.90;99.90
18876;DHT22;9570;50.854;13.778;2023-03-01T09:03:26;7.10;99.90
18876;DHT22;9570;50.854;13.778;2023-03-01T09:05:53;7.40;99.90
18876;DHT22;9570;50.854;13.778;2023-03-01T09:08:19;7.80;99.90
18876;DHT22;9570;50.854;13.778;2023-03-01T09:10:45;8.40;99.90
18876;DHT22;9570;50.854;13.778;2023-03-01T09:13:10;8.80;99.90
18876;DHT22;9570;50.854;13.778;2023-03-01T09:15:39;9.20;99.90
18876;DHT22;9570;50.854;13.778;2023-03-01T09:18:05;9.50;99.90
18876;DHT22;9570;50.854;13.778;2023-03-01T09:20:31;9.50;99.90
18876;DHT22;9570;50.854;13.778;2023-03-01T09:22:57;9.70;99.90
18876;DHT22;9570;50.854;13.778;2023-03-01T09:25:23;10.00;99.90
18876;DHT22;9570;50.854;13.778;2023-03-01T09:27:52;10.20;99.90
18876;DHT22;9570;50.854;13.778;2023-03-01T09:30:18;10.40;99.90
18876;DHT22;9570;50.854;13.778;2023-03-01T09:32:44;10.60;99.90
18876;DHT22;9570;50.854;13.778;2023-03-01T09:35:11;9.90;99.90
18876;DHT22;9570;50.854;13.778;2023-03-01T09:37:37;9.70;99.90
18876;DHT22;9570;50.854;13.778;2023-03-01T09:40:04;9.50;99.90
18876;DHT22;9570;50.854;13.778;2023-03-01T09:42:32;8.80;99.90
18876;DHT22;9570;50.854;13.778;2023-03-01T09:45:04;8.10;99.90
18876;DHT22;9570;50.854;13.778;2023-03-01T09:47:33;7.30;99.90
18876;DHT22;9570;50.854;13.778;2023-03-01T09:50:17;6.60;99.90
18876;DHT22;9570;50.854;13.778;2023-03-01T09:53:07;6.30;99.90
18876;DHT22;9570;50.854;13.778;2023-03-01T09:55:55;6.40;99.90
18876;DHT22;9570;50.854;13.778;2023-03-01T09:58:47;7.20;99.90
18876;DHT22;9570;50.854;13.778;2023-03-01T10:01:44;7.60;99.90
18876;DHT22;9570;50.854;13.778;2023-03-01T10:06:38;8.90;99.90
18876;DHT22;9570;50.854;13.778;2023-03-01T10:09:15;9.00;99.90
18876;DHT22;9570;50.854;13.778;2023-03-01T10:11:45;9.30;99.90
18876;DHT22;9570;50.854;13.778;2023-03-01T10:14:35;9.10;99.90
18876;DHT22;9570;50.854;13.778;2023-03-01T10:19:45;8.80;99.90
18876;DHT22;9570;50.854;13.778;2023-03-01T10:24:47;7.10;99.90
18876;DHT22;9570;50.854;13.778;2023-03-01T10:27:24;7.30;99.90
18876;DHT22;9570;50.854;13.778;2023-03-01T10:30:07;7.00;99.90
18876;DHT22;9570;50.854;13.778;2023-03-01T10:32:34;7.00;99.90
18876;DHT22;9570;50.854;13.778;2023-03-01T10:35:00;6.60;99.90
18876;DHT22;9570;50.854;13.778;2023-03-01T10:37:25;6.30;99.90
18876;DHT22;9570;50.854;13.778;2023-03-01T10:40:07;6.10;99.90
18876;DHT22;9570;50.854;13.778;2023-03-01T10:42:40;5.90;99.90
18876;DHT22;9570;50.854;13.778;2023-03-01T10:48:21;6.20;99.90
18876;DHT22;9570;50.854;13.778;2023-03-01T10:53:32;6.20;99.90
18876;DHT22;9570;50.854;13.778;2023-03-01T10:56:07;6.10;99.90
18876;DHT22;9570;50.854;13.778;2023-03-01T10:58:35;5.90;99.90
18876;DHT22;9570;50.854;13.778;2023-03-01T11:01:04;6.10;99.90
18876;DHT22;9570;50.854;13.778;2023-03-01T11:03:32;6.10;99.90
18876;DHT22;9570;50.854;13.778;2023-03-01T11:08:31;6.10;99.90
18876;DHT22;9570;50.854;13.778;2023-03-01T11:13:32;5.90;99.90
18876;DHT22;9570;50.854;13.778;2023-03-01T11:16:03;6.00;99.90
18876;DHT22;9570;50.854;13.778;2023-03-01T11:18:31;5.90;99.90
18876;DHT22;9570;50.854;13.778;2023-03-01T11:20:58;6.10;99.90
18876;DHT22;9570;50.854;13.778;2023-03-01T11:23:25;6.80;99.90
18876;DHT22;9570;50.854;13.778;2023-03-01T11:26:05;6.80;99.90
18876;DHT22;9570;50.854;13.778;2023-03-01T11:28:32;6.40;99.90
18876;DHT22;9570;50.854;13.778;2023-03-01T11:33:38;6.20;99.90
18876;DHT22;9570;50.854;13.778;2023-03-01T11:38:40;5.90;99.90
18876;DHT22;9570;50.854;13.778;2023-03-01T11:41:18;5.70;99.90
18876;DHT22;9570;50.854;13.778;2023-03-01T11:44:03;5.90;99.90
18876;DHT22;9570;50.854;13.778;2023-03-01T11:49:31;6.00;99.90
18876;DHT22;9570;50.854;13.778;2023-03-01T11:52:21;6.00;99.90
18876;DHT22;9570;50.854;13.778;2023-03-01T11:55:10;6.20;99.90
18876;DHT22;9570;50.854;13.778;2023-03-01T11:57:59;6.00;99.90
18876;DHT22;9570;50.854;13.778;2023-03-01T12:00:43;5.80;99.90
18876;DHT22;9570;50.854;13.778;2023-03-01T12:09:38;5.50;99.90
18876;DHT22;9570;50.854;13.778;2023-03-01T12:12:40;5.90;99.90
18876;DHT22;9570;50.854;13.778;2023-03-01T12:18:17;6.20;99.90
18876;DHT22;9570;50.854;13.778;2023-03-01T12:20:58;6.20;99.90
18876;DHT22;9570;50.854;13.778;2023-03-01T12:23:53;6.00;99.90
18876;DHT22;9570;50.854;13.778;2023-03-01T12:26:26;5.80;99.90
18876;DHT22;9570;50.854;13.778;2023-03-01T12:29:02;5.80;99.90
18876;DHT22;9570;50.854;13.778;2023-03-01T12:34:37;5.60;99.90
18876;DHT22;9570;50.854;13.778;2023-03-01T12:42:44;5.80;99.90
18876;DHT22;9570;50.854;13.778;2023-03-01T12:45:58;5.70;99.90
18876;DHT22;9570;50.854;13.778;2023-03-01T12:51:01;5.90;99.90
18876;DHT22;9570;50.854;13.778;2023-03-01T12:53:39;5.80;99.90
18876;DHT22;9570;50.854;13.778;2023-03-01T12:56:08;5.80;99.90
18876;DHT22;9570;50.854;13.778;2023-03-01T12:58:58;5.70;99.90
18876;DHT22;9570;50.854;13.778;2023-03-01T13:01:32;5.70;99.90
18876;DHT22;9570;50.854;13.778;2023-03-01T13:04:24;5.80;99.90
18876;DHT22;9570;50.854;13.778;2023-03-01T13:12:01;5.70;99.90
18876;DHT22;9570;50.854;13.778;2023-03-01T13:16:58;5.70;99.90
18876;DHT22;9570;50.854;13.778;2023-03-01T13:19:27;5.60;99.90
18876;DHT22;9570;50.854;13.778;2023-03-01T13:21:57;5.70;99.90
18876;DHT22;9570;50.854;13.778;2023-03-01T13:24:38;5.50;99.90
18876;DHT22;9570;50.854;13.778;2023-03-01T13:29:47;5.50;99.90
18876;DHT22;9570;50.854;13.778;2023-03-01T13:32:32;5.40;99.90
18876;DHT22;9570;50.854;13.778;2023-03-01T13:35:01;5.50;99.90
18876;DHT22;9570;50.854;13.778;2023-03-01T13:37:32;5.40;99.90
18876;DHT22;9570;50.854;13.778;2023-03-01T13:42:53;5.30;99.90
18876;DHT22;9570;50.854;13.778;2023-03-01T13:45:40;5.30;99.90
18876;DHT22;9570;50.854;13.778;2023-03-01T13:48:23;5.20;99.90
18876;DHT22;9570;50.854;13.778;2023-03-01T13:50:54;5.10;99.90
18876;DHT22;9570;50.854;13.778;2023-03-01T13:53:24;5.20;99.90
18876;DHT22;9570;50.854;13.778;2023-03-01T13:56:00;5.20;99.90
18876;DHT22;9570;50.854;13.778;2023-03-01T13:58:31;5.40;99.90
18876;DHT22;9570;50.854;13.778;2023-03-01T14:03:25;5.30;99.90
18876;DHT22;9570;50.854;13.778;2023-03-01T14:06:26;5.10;99.90
18876;DHT22;9570;50.854;13.778;2023-03-01T14:09:15;5.00;99.90
18876;DHT22;9570;50.854;13.778;2023-03-01T14:12:14;4.90;99.90
18876;DHT22;9570;50.854;13.778;2023-03-01T14:14:51;5.10;99.90
18876;DHT22;9570;50.854;13.778;2023-03-01T14:20:19;4.80;99.90
18876;DHT22;9570;50.854;13.778;2023-03-01T14:22:46;4.80;99.90
18876;DHT22;9570;50.854;13.778;2023-03-01T14:25:31;4.80;99.90
18876;DHT22;9570;50.854;13.778;2023-03-01T14:30:38;4.60;99.90
18876;DHT22;9570;50.854;13.778;2023-03-01T14:33:18;4.60;99.90
18876;DHT22;9570;50.854;13.778;2023-03-01T14:36:01;4.60;99.90
18876;DHT22;9570;50.854;13.778;2023-03-01T14:41:24;4.70;99.90
18876;DHT22;9570;50.854;13.778;2023-03-01T14:44:19;4.70;99.90
18876;DHT22;9570;50.854;13.778;2023-03-01T14:46:44;4.80;99.90
18876;DHT22;9570;50.854;13.778;2023-03-01T14:49:19;4.90;99.90
18876;DHT22;9570;50.854;13.778;2023-03-01T14:54:36;4.70;99.90
18876;DHT22;9570;50.854;13.778;2023-03-01T14:57:03;4.70;99.90
18876;DHT22;9570;50.854;13.778;2023-03-01T14:59:29;4.60;99.90
18876;DHT22;9570;50.854;13.778;2023-03-01T15:01:56;4.60;99.90
18876;DHT22;9570;50.854;13.778;2023-03-01T15:04:23;4.60;99.90
18876;DHT22;9570;50.854;13.778;2023-03-01T15:06:53;4.70;99.90
18876;DHT22;9570;50.854;13.778;2023-03-01T15:09:20;4.60;99.90
18876;DHT22;9570;50.854;13.778;2023-03-01T15:11:46;4.80;99.90
18876;DHT22;9570;50.854;13.778;2023-03-01T15:14:40;4.80;99.90
18876;DHT22;9570;50.854;13.778;2023-03-01T15:17:36;4.80;99.90
18876;DHT22;9570;50.854;13.778;2023-03-01T15:20:05;4.80;99.90
18876;DHT22;9570;50.854;13.778;2023-03-01T15:22:31;4.80;99.90
18876;DHT22;9570;50.854;13.778;2023-03-01T15:24:57;4.70;99.90
18876;DHT22;9570;50.854;13.778;2023-03-01T15:27:25;4.70;99.90
18876;DHT22;9570;50.854;13.778;2023-03-01T15:29:58;4.80;99.90
18876;DHT22;9570;50.854;13.778;2023-03-01T15:32:32;4.90;99.90
18876;DHT22;9570;50.854;13.778;2023-03-01T15:34:59;5.10;99.90
18876;DHT22;9570;50.854;13.778;2023-03-01T15:37:40;5.10;99.90
18876;DHT22;9570;50.854;13.778;2023-03-01T15:40:27;5.00;99.90
18876;DHT22;9570;50.854;13.778;2023-03-01T15:43:04;4.90;99.90
18876;DHT22;9570;50.854;13.778;2023-03-01T15:45:32;4.90;99.90
18876;DHT22;9570;50.854;13.778;2023-03-01T15:48:24;4.90;99.90
18876;DHT22;9570;50.854;13.778;2023-03-01T15:50:56;5.00;99.90
18876;DHT22;9570;50.854;13.778;2023-03-01T15:53:22;5.00;99.90
18876;DHT22;9570;50.854;13.778;2023-03-01T15:55:48;4.90;99.90
18876;DHT22;9570;50.854;13.778;2023-03-01T15:58:18;4.80;99.90
18876;DHT22;9570;50.854;13.778;2023-03-01T16:00:45;4.80;99.90
18876;DHT22;9570;50.854;13.778;2023-03-01T16:03:12;4.80;99.90
18876;DHT22;9570;50.854;13.778;2023-03-01T16:05:38;4.70;99.90
18876;DHT22;9570;50.854;13.778;2023-03-01T16:08:05;4.70;99.90
18876;DHT22;9570;50.854;13.778;2023-03-01T16:10:32;4.70;99.90
18876;DHT22;9570;50.854;13.778;2023-03-01T16:12:59;4.50;99.90
18876;DHT22;9570;50.854;13.778;2023-03-01T16:15:28;4.40;99.90
18876;DHT22;9570;50.854;13.778;2023-03-01T16:17:54;4.30;99.90
18876;DHT22;9570;50.854;13.778;2023-03-01T16:20:21;4.30;99.90
18876;DHT22;9570;50.854;13.778;2023-03-01T16:22:46;4.20;99.90
18876;DHT22;9570;50.854;13.778;2023-03-01T16:25:15;4.10;99.90
18876;DHT22;9570;50.854;13.778;2023-03-01T16:27:48;4.10;99.90
18876;DHT22;9570;50.854;13.778;2023-03-01T16:30:16;4.00;99.90
18876;DHT22;9570;50.854;13.778;2023-03-01T16:32:44;3.90;99.90
18876;DHT22;9570;50.854;13.778;2023-03-01T16:35:12;3.80;99.90
18876;DHT22;9570;50.854;13.778;2023-03-01T16:37:38;3.80;99.90
18876;DHT22;9570;50.854;13.778;2023-03-01T16:40:05;3.70;99.90
18876;DHT22;9570;50.854;13.778;2023-03-01T16:42:37;3.60;99.90
18876;DHT22;9570;50.854;13.778;2023-03-01T16:45:03;3.60;99.90
18876;DHT22;9570;50.854;13.778;2023-03-01T16:47:29;3.50;99.90
18876;DHT22;9570;50.854;13.778;2023-03-01T16:49:55;3.40;99.90
18876;DHT22;9570;50.854;13.778;2023-03-01T16:52:22;3.30;99.90
18876;DHT22;9570;50.854;13.778;2023-03-01T16:54:48;3.30;99.90
18876;DHT22;9570;50.854;13.778;2023-03-01T16:57:13;3.20;99.90
18876;DHT22;9570;50.854;13.778;2023-03-01T16:59:39;3.20;99.90
18876;DHT22;9570;50.854;13.778;2023-03-01T17:02:06;3.10;99.90
18876;DHT22;9570;50.854;13.778;2023-03-01T17:04:31;3.10;99.90
18876;DHT22;9570;50.854;13.778;2023-03-01T17:06:57;3.10;99.90
18876;DHT22;9570;50.854;13.778;2023-03-01T17:09:22;2.90;99.90
18876;DHT22;9570;50.854;13.778;2023-03-01T17:11:49;2.90;99.90
18876;DHT22;9570;50.854;13.778;2023-03-01T17:14:15;2.90;99.90
18876;DHT22;9570;50.854;13.778;2023-03-01T17:16:42;2.80;99.90